createdAt,value
2023-03-04T00:00:34.881Z,13.87
2023-03-04T00:03:02.758Z,15.67
2023-03-04T00:05:31.240Z,13.83
2023-03-04T00:07:59.065Z,13.70
2023-03-04T00:10:26.924Z,15.07
2023-03-04T00:12:54.653Z,14.17
2023-03-04T00:15:22.466Z,15.47
2023-03-04T00:17:51.566Z,16.70
2023-03-04T00:20:19.423Z,15.57
2023-03-04T00:22:48.089Z,15.70
2023-03-04T00:25:16.083Z,14.73
2023-03-04T00:27:43.874Z,15.67
2023-03-04T00:30:12.513Z,15.10
2023-03-04T00:32:40.598Z,15.23
2023-03-04T00:35:10.280Z,14.20
2023-03-04T00:37:38.086Z,13.87
2023-03-04T00:51:14.514Z,13.30
2023-03-04T00:53:42.287Z,13.93
2023-03-04T00:56:10.096Z,12.67
2023-03-04T00:58:39.371Z,13.87
2023-03-04T01:01:07.241Z,15.83
2023-03-04T01:03:35.073Z,13.80
2023-03-04T01:06:02.878Z,14.37
2023-03-04T01:08:32.134Z,14.83
2023-03-04T01:11:00.043Z,14.37
2023-03-04T01:13:27.777Z,14.40
2023-03-04T01:15:55.962Z,14.33
2023-03-04T01:18:23.832Z,14.20
2023-03-04T01:20:51.935Z,13.97
2023-03-04T01:23:19.743Z,13.43
2023-03-04T01:25:49.074Z,13.70
2023-03-04T01:28:16.886Z,14.50
2023-03-04T01:30:44.714Z,16.37
2023-03-04T01:33:12.498Z,14.87
2023-03-04T01:35:40.389Z,15.23
2023-03-04T01:38:08.222Z,15.57
2023-03-04T01:40:36.030Z,15.07
2023-03-04T01:43:05.366Z,16.40
2023-03-04T01:45:33.625Z,17.50
2023-03-04T01:48:01.562Z,14.97
2023-03-04T01:50:32.225Z,15.27
2023-03-04T01:53:00.121Z,15.77
2023-03-04T01:55:28.248Z,14.27
2023-03-04T01:57:57.342Z,13.80
2023-03-04T02:00:30.812Z,15.80
2023-03-04T02:03:00.839Z,15.93
2023-03-04T02:05:29.202Z,14.10
2023-03-04T02:07:57.593Z,14.63
2023-03-04T02:10:25.714Z,14.10
2023-03-04T02:12:53.917Z,12.60
2023-03-04T02:15:22.045Z,12.70
2023-03-04T02:17:51.338Z,12.97
2023-03-04T02:20:29.289Z,13.17
2023-03-04T02:23:03.104Z,12.23
2023-03-04T02:25:35.087Z,12.40
2023-03-04T02:28:04.389Z,13.43
2023-03-04T02:30:32.411Z,13.47
2023-03-04T02:33:00.380Z,12.93
2023-03-04T02:35:28.366Z,13.10
2023-03-04T02:37:56.131Z,12.77
2023-03-04T02:40:27.674Z,11.77
2023-03-04T02:42:55.588Z,13.00
2023-03-04T02:45:38.050Z,13.20
2023-03-04T02:48:06.600Z,13.17
2023-03-04T02:50:37.625Z,13.57
2023-03-04T02:53:05.717Z,11.57
2023-03-04T02:55:33.738Z,11.00
2023-03-04T02:58:01.461Z,11.23
2023-03-04T03:00:29.705Z,11.73
2023-03-04T03:02:59.019Z,11.27
2023-03-04T03:05:28.498Z,11.50
2023-03-04T03:07:56.237Z,13.60
2023-03-04T03:10:24.252Z,14.73
2023-03-04T03:12:52.072Z,15.43
2023-03-04T03:15:19.888Z,13.33
2023-03-04T03:17:48.216Z,13.03
2023-03-04T03:20:18.289Z,13.77
2023-03-04T03:22:46.078Z,14.93
2023-03-04T03:25:15.067Z,14.27
2023-03-04T03:27:43.058Z,15.10
2023-03-04T03:30:13.185Z,13.37
2023-03-04T03:32:41.081Z,12.83
2023-03-04T03:35:09.712Z,12.97
2023-03-04T03:37:38.867Z,13.03
2023-03-04T03:40:07.701Z,12.67
2023-03-04T03:42:35.443Z,13.00
2023-03-04T03:45:03.279Z,12.80
2023-03-04T03:47:30.986Z,11.07
2023-03-04T03:49:58.806Z,12.63
2023-03-04T03:52:26.567Z,12.33
2023-03-04T03:54:55.682Z,12.60
2023-03-04T03:57:23.459Z,11.83
2023-03-04T03:59:51.165Z,12.00
2023-03-04T04:02:19.022Z,13.30
2023-03-04T04:04:46.836Z,11.80
2023-03-04T04:07:14.646Z,11.80
2023-03-04T04:09:42.488Z,13.37
2023-03-04T04:12:12.828Z,11.23
2023-03-04T04:14:40.632Z,11.83
2023-03-04T04:17:08.447Z,11.63
2023-03-04T04:19:36.213Z,12.13
2023-03-04T04:22:04.501Z,11.47
2023-03-04T04:24:32.278Z,11.80
2023-03-04T04:27:00.070Z,11.07
2023-03-04T04:29:29.199Z,10.23
2023-03-04T04:31:57.050Z,10.60
2023-03-04T04:34:24.827Z,11.10
2023-03-04T04:36:53.875Z,9.47
2023-03-04T04:39:21.654Z,10.37
2023-03-04T04:41:49.695Z,10.97
2023-03-04T04:44:17.512Z,10.87
2023-03-04T04:46:46.658Z,11.03
2023-03-04T04:49:14.452Z,10.83
2023-03-04T04:51:42.268Z,11.20
2023-03-04T04:54:15.110Z,11.90
2023-03-04T04:56:42.826Z,10.73
2023-03-04T04:59:10.641Z,12.47
2023-03-04T05:01:38.397Z,11.80
2023-03-04T05:04:07.638Z,10.60
2023-03-04T05:06:35.446Z,11.40
2023-03-04T05:09:04.429Z,10.50
2023-03-04T05:11:32.134Z,10.77
2023-03-04T05:14:00.055Z,10.13
2023-03-04T05:16:27.899Z,10.67
2023-03-04T05:18:55.748Z,10.13
2023-03-04T05:21:24.885Z,10.83
2023-03-04T05:23:52.694Z,10.93
2023-03-04T05:26:20.807Z,12.47
2023-03-04T05:28:48.845Z,9.77
2023-03-04T05:31:17.839Z,11.03
2023-03-04T05:33:48.051Z,11.37
2023-03-04T05:36:15.870Z,12.77
2023-03-04T05:38:45.001Z,10.73
2023-03-04T05:41:12.766Z,9.57
2023-03-04T05:43:42.885Z,10.17
2023-03-04T05:46:15.692Z,9.77
2023-03-04T05:48:43.865Z,12.60
2023-03-04T05:51:11.939Z,8.57
2023-03-04T05:53:40.220Z,8.43
2023-03-04T05:56:10.769Z,10.57
2023-03-04T05:58:38.799Z,9.30
2023-03-04T06:01:07.256Z,8.20
2023-03-04T06:03:35.336Z,9.47
2023-03-04T06:06:03.476Z,9.30
2023-03-04T06:08:31.264Z,8.43
2023-03-04T06:11:00.032Z,8.53
2023-03-04T06:13:29.241Z,8.90
2023-03-04T06:15:58.040Z,8.40
2023-03-04T06:18:26.727Z,8.60
2023-03-04T06:20:57.625Z,6.90
2023-03-04T06:23:25.488Z,8.73
2023-03-04T06:25:54.796Z,8.07
2023-03-04T06:28:23.196Z,9.30
2023-03-04T06:30:54.326Z,11.30
2023-03-04T06:33:22.465Z,8.50
2023-03-04T06:35:50.352Z,8.87
2023-03-04T06:38:19.797Z,9.33
2023-03-04T06:40:47.564Z,10.03
2023-03-04T06:43:15.312Z,9.27
2023-03-04T06:45:43.066Z,9.27
2023-03-04T06:48:12.296Z,10.03
2023-03-04T06:50:41.394Z,8.97
2023-03-04T06:53:09.324Z,10.93
2023-03-04T06:55:37.114Z,9.33
2023-03-04T06:58:04.970Z,10.37
2023-03-04T07:00:32.674Z,9.17
2023-03-04T07:03:01.057Z,9.50
2023-03-04T07:05:30.242Z,7.60
2023-03-04T07:07:58.047Z,8.70
2023-03-04T07:10:25.791Z,9.20
2023-03-04T07:12:53.577Z,9.70
2023-03-04T07:15:22.827Z,8.17
2023-03-04T07:17:50.657Z,11.00
2023-03-04T07:20:18.482Z,9.80
2023-03-04T07:22:47.797Z,7.97
2023-03-04T07:25:15.786Z,9.30
2023-03-04T07:27:43.560Z,7.57
2023-03-04T07:30:12.595Z,9.87
2023-03-04T07:32:40.342Z,8.43
2023-03-04T07:35:08.969Z,7.90
2023-03-04T07:37:36.956Z,10.73
2023-03-04T07:40:08.133Z,10.60
2023-03-04T07:42:36.002Z,9.47
2023-03-04T07:45:03.844Z,11.07
2023-03-04T07:47:31.584Z,8.70
2023-03-04T07:49:59.284Z,10.60
2023-03-04T07:52:27.151Z,11.27
2023-03-04T07:54:54.911Z,9.87
2023-03-04T07:57:24.105Z,7.80
2023-03-04T07:59:51.870Z,9.33
2023-03-04T08:02:19.756Z,7.97
2023-03-04T08:04:47.567Z,9.97
2023-03-04T08:07:15.396Z,15.43
2023-03-04T08:09:43.273Z,11.13
2023-03-04T08:12:11.105Z,12.10
2023-03-04T08:14:40.182Z,9.90
2023-03-04T08:17:08.698Z,9.83
2023-03-04T08:19:37.728Z,9.83
2023-03-04T08:22:05.434Z,10.10
2023-03-04T08:24:33.468Z,8.67
2023-03-04T08:27:01.191Z,9.33
2023-03-04T08:29:29.174Z,9.23
2023-03-04T08:31:58.536Z,8.37
2023-03-04T08:34:28.161Z,8.23
2023-03-04T08:36:56.158Z,8.67
2023-03-04T08:39:23.955Z,8.23
2023-03-04T08:41:51.668Z,11.33
2023-03-04T08:44:22.294Z,10.73
2023-03-04T08:46:49.975Z,9.17
2023-03-04T08:49:19.229Z,10.37
2023-03-04T08:51:47.030Z,10.53
2023-03-04T08:54:14.843Z,9.83
2023-03-04T08:56:42.880Z,10.37
2023-03-04T08:59:10.685Z,11.27
2023-03-04T09:01:38.640Z,11.87
2023-03-04T09:04:06.639Z,10.10
2023-03-04T09:06:35.694Z,10.70
2023-03-04T09:09:05.723Z,10.30
2023-03-04T09:11:33.444Z,9.13
2023-03-04T09:14:01.323Z,9.57
2023-03-04T09:16:29.264Z,9.73
2023-03-04T09:18:57.121Z,11.30
2023-03-04T09:21:24.896Z,11.07
2023-03-04T09:23:54.344Z,12.27
2023-03-04T09:26:24.422Z,12.20
2023-03-04T09:28:52.937Z,12.67
2023-03-04T09:34:35.255Z,10.80
2023-03-04T09:51:16.636Z,10.67
2023-03-04T09:53:49.619Z,9.77
2023-03-04T09:56:17.617Z,11.47
2023-03-04T09:58:54.057Z,12.53
2023-03-04T10:01:25.503Z,11.83
2023-03-04T10:03:56.803Z,12.03
2023-03-04T10:06:26.051Z,11.90
2023-03-04T10:08:56.689Z,13.43
2023-03-04T10:11:27.235Z,13.07
2023-03-04T10:14:02.948Z,13.17
2023-03-04T10:16:34.825Z,13.43
2023-03-04T10:19:15.991Z,13.37
2023-03-04T10:21:47.883Z,11.53
2023-03-04T10:24:18.061Z,13.37
2023-03-04T10:26:48.085Z,13.20
2023-03-04T10:29:17.761Z,12.70
2023-03-04T10:31:46.205Z,13.13
2023-03-04T10:34:15.224Z,12.70
2023-03-04T10:36:55.913Z,13.73
2023-03-04T10:39:27.864Z,13.43
2023-03-04T10:41:59.559Z,11.90
2023-03-04T10:44:29.285Z,10.97
2023-03-04T10:46:58.687Z,12.73
2023-03-04T10:49:28.034Z,12.30
2023-03-04T10:52:03.532Z,11.27
2023-03-04T10:54:32.925Z,11.70
2023-03-04T10:57:02.392Z,10.33
2023-03-04T10:59:44.385Z,9.90
2023-03-04T11:02:24.014Z,10.67
2023-03-04T11:04:54.303Z,10.97
2023-03-04T11:07:24.793Z,12.03
2023-03-04T11:09:57.264Z,9.93
2023-03-04T11:29:26.303Z,8.10
2023-03-04T11:31:56.806Z,8.47
2023-03-04T11:34:33.795Z,7.50
2023-03-04T11:37:05.142Z,7.10
2023-03-04T11:39:36.140Z,8.20
2023-03-04T11:42:07.023Z,8.57
2023-03-04T11:44:37.112Z,8.87
2023-03-04T11:47:12.834Z,7.77
2023-03-04T11:50:22.219Z,9.30
2023-03-04T11:53:05.761Z,8.60
2023-03-04T12:09:38.417Z,9.33
2023-03-04T12:12:23.199Z,9.67
2023-03-04T12:14:59.313Z,9.00
2023-03-04T12:17:48.252Z,9.43
2023-03-04T12:20:36.017Z,8.30
2023-03-04T12:23:12.234Z,9.73
2023-03-04T12:25:46.776Z,7.53
2023-03-04T12:28:27.793Z,8.70
2023-03-04T12:31:18.305Z,7.20
2023-03-04T12:33:56.304Z,7.43
2023-03-04T12:36:30.659Z,8.10
2023-03-04T12:39:01.969Z,7.53
2023-03-04T12:41:42.876Z,7.53
2023-03-04T12:44:21.106Z,8.97
2023-03-04T12:47:21.208Z,9.33
2023-03-04T12:50:18.464Z,7.60
2023-03-04T12:52:52.965Z,9.27
2023-03-04T12:55:26.194Z,7.67
2023-03-04T12:57:55.906Z,7.87
2023-03-04T13:00:29.876Z,7.80
2023-03-04T13:03:07.822Z,9.70
2023-03-04T13:05:46.241Z,7.67
2023-03-04T13:08:26.035Z,6.90
2023-03-04T13:10:53.940Z,7.57
2023-03-04T13:13:43.252Z,6.57
2023-03-04T13:16:32.584Z,7.40
2023-03-04T13:19:00.697Z,7.40
2023-03-04T13:21:29.481Z,8.73
2023-03-04T13:23:57.560Z,8.23
2023-03-04T13:26:30.517Z,6.93
2023-03-04T13:29:37.081Z,8.63
2023-03-04T13:32:11.710Z,7.53
2023-03-04T13:34:45.629Z,7.20
2023-03-04T13:37:31.564Z,6.73
2023-03-04T13:40:34.353Z,7.03
2023-03-04T13:43:22.443Z,6.80
2023-03-04T13:45:51.526Z,7.07
2023-03-04T13:48:30.196Z,8.23
2023-03-04T13:50:59.038Z,7.93
2023-03-04T13:53:45.201Z,7.70
2023-03-04T13:56:27.029Z,6.00
2023-03-04T13:59:05.677Z,6.60
2023-03-04T14:01:36.360Z,6.73
2023-03-04T14:04:14.976Z,7.00
2023-03-04T14:06:44.369Z,6.80
2023-03-04T14:09:14.617Z,5.93
2023-03-04T14:11:42.961Z,5.70
2023-03-04T14:14:13.692Z,7.90
2023-03-04T14:16:50.665Z,7.07
2023-03-04T14:19:24.466Z,6.70
2023-03-04T14:21:52.320Z,7.73
2023-03-04T14:24:21.498Z,6.73
2023-03-04T14:26:50.880Z,5.53
2023-03-04T14:29:23.588Z,5.50
2023-03-04T14:31:53.346Z,5.00
2023-03-04T14:34:26.163Z,5.60
2023-03-04T14:36:55.260Z,7.83
2023-03-04T14:39:35.508Z,5.43
2023-03-04T14:42:05.991Z,5.77
2023-03-04T14:44:37.827Z,4.17
2023-03-04T14:47:14.317Z,4.93
2023-03-04T15:00:24.503Z,3.27
2023-03-04T15:02:53.673Z,3.73
2023-03-04T15:05:26.371Z,6.07
2023-03-04T15:07:56.687Z,4.87
2023-03-04T15:10:26.043Z,5.13
2023-03-04T15:12:54.936Z,6.27
2023-03-04T15:15:37.407Z,6.10
2023-03-04T15:18:14.434Z,6.03
2023-03-04T15:20:42.520Z,5.70
2023-03-04T15:23:14.702Z,6.97
2023-03-04T15:25:42.473Z,4.97
2023-03-04T15:28:18.278Z,5.23
2023-03-04T15:30:47.533Z,5.40
2023-03-04T15:33:15.815Z,5.87
2023-03-04T15:35:49.449Z,5.37
2023-03-04T15:38:17.310Z,4.60
2023-03-04T15:40:45.204Z,5.57
2023-03-04T15:43:15.601Z,4.10
2023-03-04T15:45:43.974Z,5.53
2023-03-04T15:48:14.826Z,6.23
2023-03-04T15:50:44.954Z,4.57
2023-03-04T15:53:17.316Z,5.70
2023-03-04T15:55:46.470Z,5.07
2023-03-04T15:58:14.684Z,4.93
2023-03-04T16:00:43.554Z,4.23
2023-03-04T16:03:19.256Z,3.97
2023-03-04T16:05:48.614Z,5.07
2023-03-04T16:08:18.546Z,5.17
2023-03-04T16:10:46.436Z,4.43
2023-03-04T16:13:15.654Z,5.47
2023-03-04T16:15:44.201Z,4.67
2023-03-04T16:18:16.516Z,5.33
2023-03-04T16:20:46.047Z,5.47
2023-03-04T16:23:16.531Z,5.83
2023-03-04T16:25:45.086Z,6.73
2023-03-04T16:28:13.711Z,6.90
2023-03-04T16:30:42.106Z,7.10
2023-03-04T16:33:11.386Z,9.40
2023-03-04T16:35:40.909Z,12.03
2023-03-04T16:38:20.942Z,10.27
2023-03-04T16:40:49.538Z,11.43
2023-03-04T16:43:17.294Z,10.30
2023-03-04T16:45:45.463Z,10.30
2023-03-04T16:48:13.188Z,13.10
2023-03-04T16:50:43.245Z,11.77
2023-03-04T16:53:22.989Z,11.93
2023-03-04T16:55:50.811Z,11.63
2023-03-04T16:58:18.607Z,13.13
2023-03-04T17:00:46.422Z,13.83
2023-03-04T17:03:14.185Z,14.53
2023-03-04T17:05:44.293Z,13.40
2023-03-04T17:08:12.108Z,15.60
2023-03-04T17:10:39.984Z,16.10
2023-03-04T17:13:08.700Z,15.60
2023-03-04T17:15:36.739Z,15.67
2023-03-04T17:18:04.651Z,13.90
2023-03-04T17:20:32.332Z,16.40
2023-03-04T17:23:02.946Z,16.83
2023-03-04T17:25:30.670Z,14.07
2023-03-04T17:28:00.836Z,13.80
2023-03-04T17:30:28.615Z,13.03
2023-03-04T17:32:56.438Z,14.53
2023-03-04T17:35:25.690Z,14.80
2023-03-04T17:37:53.954Z,12.90
2023-03-04T17:40:23.110Z,15.50
2023-03-04T17:42:51.183Z,14.07
2023-03-04T17:45:19.052Z,15.73
2023-03-04T17:47:46.869Z,14.83
2023-03-04T17:50:14.684Z,15.90
2023-03-04T17:52:42.748Z,15.00
2023-03-04T17:55:11.273Z,16.83
2023-03-04T17:57:40.433Z,16.90
2023-03-04T18:00:10.052Z,17.27
2023-03-04T18:02:37.819Z,17.87
2023-03-04T18:05:07.508Z,16.47
2023-03-04T18:07:35.403Z,17.17
2023-03-04T18:10:03.176Z,17.60
2023-03-04T18:12:31.177Z,17.10
2023-03-04T18:15:00.548Z,17.90
2023-03-04T18:17:28.667Z,17.50
2023-03-04T18:19:56.689Z,16.43
2023-03-04T18:22:24.405Z,18.03
2023-03-04T18:24:52.405Z,19.53
2023-03-04T18:27:20.169Z,17.60
2023-03-04T18:29:47.928Z,17.73
2023-03-04T18:32:17.118Z,19.90
2023-03-04T18:34:45.834Z,17.70
2023-03-04T18:37:16.096Z,22.30
2023-03-04T18:39:43.936Z,21.43
2023-03-04T18:42:11.657Z,20.97
2023-03-04T18:44:39.681Z,19.13
2023-03-04T18:47:08.030Z,19.77
2023-03-04T18:49:37.284Z,18.70
2023-03-04T18:52:05.303Z,19.63
2023-03-04T18:54:33.144Z,19.10
2023-03-04T18:57:03.132Z,19.20
2023-03-04T18:59:33.308Z,18.03
2023-03-04T19:02:03.517Z,17.90
2023-03-04T19:04:31.455Z,17.40
2023-03-04T19:07:00.573Z,16.03
2023-03-04T19:12:01.901Z,17.93
2023-03-04T19:14:29.718Z,18.57
2023-03-04T19:16:57.619Z,19.13
2023-03-04T19:19:25.375Z,18.07
2023-03-04T19:21:53.073Z,17.80
2023-03-04T19:24:22.419Z,21.03
2023-03-04T19:26:50.157Z,19.93
2023-03-04T19:29:18.047Z,20.60
2023-03-04T19:31:45.745Z,18.93
2023-03-04T19:34:13.519Z,17.30
2023-03-04T19:36:41.361Z,18.70
2023-03-04T19:39:10.207Z,18.23
2023-03-04T19:41:41.168Z,18.17
2023-03-04T19:44:09.057Z,18.43
2023-03-04T19:46:36.893Z,18.70
2023-03-04T19:49:05.564Z,18.63
2023-03-04T19:51:33.983Z,19.20
2023-03-04T19:54:03.371Z,19.63
2023-03-04T19:56:31.166Z,20.00
2023-03-04T19:59:00.344Z,21.43
2023-03-04T20:01:29.960Z,20.60
2023-03-04T20:03:58.587Z,21.20
2023-03-04T20:06:27.208Z,18.40
2023-03-04T20:08:57.339Z,20.10
2023-03-04T20:11:27.315Z,19.03
2023-03-04T20:13:55.143Z,20.80
2023-03-04T20:16:24.248Z,19.50
2023-03-04T20:18:52.047Z,21.47
2023-03-04T20:21:20.015Z,19.60
2023-03-04T20:23:47.807Z,21.03
2023-03-04T20:26:15.558Z,22.33
2023-03-04T20:28:43.347Z,21.63
2023-03-04T20:31:13.005Z,24.40
2023-03-04T20:33:42.466Z,22.77
2023-03-04T20:36:10.357Z,22.80
2023-03-04T20:38:38.594Z,24.43
2023-03-04T20:41:06.928Z,23.50
2023-03-04T20:43:34.677Z,24.43
2023-03-04T20:46:27.984Z,26.10
2023-03-04T20:48:58.303Z,23.77
2023-03-04T20:51:26.407Z,23.03
2023-03-04T20:53:55.414Z,23.00
2023-03-04T20:56:23.484Z,24.20
2023-03-04T20:58:51.310Z,24.10
2023-03-04T21:01:19.342Z,25.93
2023-03-04T21:03:47.337Z,27.40
2023-03-04T21:06:17.041Z,26.07
2023-03-04T21:08:45.941Z,27.93
2023-03-04T21:11:14.239Z,26.13
2023-03-04T21:13:43.101Z,27.67
2023-03-04T21:16:15.511Z,25.67
2023-03-04T21:18:44.577Z,27.33
2023-03-04T21:21:14.448Z,29.50
2023-03-04T21:23:43.613Z,27.17
2023-03-04T21:26:11.372Z,28.40
2023-03-04T21:28:39.160Z,27.07
2023-03-04T21:31:07.450Z,25.97
2023-03-04T21:33:36.967Z,25.93
2023-03-04T21:36:05.266Z,27.13
2023-03-04T21:38:34.005Z,26.90
2023-03-04T21:41:03.151Z,25.80
2023-03-04T21:43:30.976Z,26.27
2023-03-04T21:45:59.463Z,28.23
2023-03-04T21:48:27.453Z,27.83
2023-03-04T21:51:00.131Z,30.30
2023-03-04T21:53:28.870Z,27.33
2023-03-04T21:55:56.629Z,27.17
2023-03-04T21:58:25.909Z,26.00
2023-03-04T22:00:53.978Z,28.37
2023-03-04T22:03:22.772Z,27.33
2023-03-04T22:05:50.644Z,27.60
2023-03-04T22:08:20.961Z,29.03
2023-03-04T22:10:49.345Z,29.77
2023-03-04T22:13:17.330Z,30.90
2023-03-04T22:15:47.693Z,31.40
2023-03-04T22:18:15.766Z,31.47
2023-03-04T22:20:45.185Z,30.53
2023-03-04T22:23:13.722Z,29.90
2023-03-04T22:25:42.692Z,30.30
2023-03-04T22:28:10.611Z,32.27
2023-03-04T22:30:38.467Z,27.87
2023-03-04T22:33:07.634Z,31.70
2023-03-04T22:35:35.555Z,29.40
2023-03-04T22:38:03.316Z,29.30
2023-03-04T22:40:31.125Z,29.77
2023-03-04T22:42:58.901Z,29.40
2023-03-04T22:45:28.294Z,31.37
2023-03-04T22:47:56.113Z,31.70
2023-03-04T22:50:25.589Z,33.00
2023-03-04T22:52:53.415Z,34.07
2023-03-04T22:55:22.809Z,33.07
2023-03-04T22:57:50.928Z,30.67
2023-03-04T23:00:21.587Z,29.03
2023-03-04T23:02:49.532Z,29.90
2023-03-04T23:05:18.545Z,28.87
2023-03-04T23:07:48.496Z,29.10
2023-03-04T23:10:18.302Z,28.50
2023-03-04T23:12:46.018Z,27.37
2023-03-04T23:15:15.630Z,27.43
2023-03-04T23:17:43.544Z,26.33
2023-03-04T23:20:13.612Z,30.60
2023-03-04T23:22:41.382Z,27.27
2023-03-04T23:25:11.165Z,28.73
2023-03-04T23:27:39.580Z,29.37
2023-03-04T23:30:09.304Z,30.73
2023-03-04T23:32:37.099Z,27.23
2023-03-04T23:35:05.441Z,27.83
2023-03-04T23:37:33.276Z,28.77
2023-03-04T23:40:01.081Z,27.47
2023-03-04T23:42:30.243Z,27.47
2023-03-04T23:44:57.973Z,26.40
2023-03-04T23:47:26.171Z,27.07
2023-03-04T23:49:54.203Z,27.53
2023-03-04T23:52:22.072Z,26.93
2023-03-04T23:54:49.899Z,27.17
2023-03-04T23:57:17.663Z,27.20
2023-03-04T23:59:46.797Z,26.93
